Time;durP1;ratioP1;P1;durP2;ratioP2;P2;SDS_P1;SDS_P2;PMS_P1;PMS_P2;Temp;Humidity;BMP_temperature;BMP_pressure;BME280_temperature;BME280_humidity;BME280_pressure;Samples;Min_cycle;Max_cycle;Signal;HPM_P1;HPM_P2
2023/11/01 00:00:43;;;;;;;10.55;3.25;;;;;;;13.54;100.00;100323.91;5337876;27;20027;-72
2023/11/01 00:03:15;;;;;;;7.25;2.80;;;;;;;13.60;100.00;100318.00;5334312;27;20031;-73
2023/11/01 00:05:48;;;;;;;8.52;2.67;;;;;;;13.57;100.00;100313.06;5335724;27;20519;-73
2023/11/01 00:08:20;;;;;;;10.77;2.90;;;;;;;13.54;100.00;100302.84;5317819;27;20035;-72
2023/11/01 00:10:52;;;;;;;9.52;2.78;;;;;;;13.53;100.00;100298.59;5334409;27;20035;-72
2023/11/01 00:13:24;;;;;;;7.22;3.13;;;;;;;13.56;100.00;100299.09;5325185;27;20100;-72
2023/11/01 00:15:56;;;;;;;8.95;3.20;;;;;;;13.55;100.00;100296.59;5335317;27;20054;-72
2023/11/01 00:18:28;;;;;;;8.73;3.13;;;;;;;13.52;100.00;100294.28;5337319;27;20388;-72
2023/11/01 00:20:59;;;;;;;7.72;2.75;;;;;;;13.51;100.00;100285.56;5335682;27;20023;-72
2023/11/01 00:23:31;;;;;;;10.52;3.08;;;;;;;13.46;100.00;100284.44;5335095;27;20064;-73
2023/11/01 00:26:06;;;;;;;10.05;2.88;;;;;;;13.51;100.00;100282.94;5335992;27;20030;-73
2023/11/01 00:28:37;;;;;;;6.65;2.65;;;;;;;13.49;100.00;100278.84;5333693;27;20472;-72
2023/11/01 00:31:09;;;;;;;6.57;2.53;;;;;;;13.49;100.00;100274.41;5336168;27;20026;-72
2023/11/01 00:33:42;;;;;;;8.60;2.30;;;;;;;13.47;100.00;100275.53;5337672;27;20030;-73
2023/11/01 00:36:14;;;;;;;9.35;2.78;;;;;;;13.51;100.00;100271.59;5336956;27;20031;-72
2023/11/01 00:38:46;;;;;;;11.85;2.60;;;;;;;13.46;100.00;100263.38;5332388;27;20035;-72
2023/11/01 00:41:18;;;;;;;6.68;2.67;;;;;;;13.47;100.00;100270.28;5317702;27;20305;-73
2023/11/01 00:43:50;;;;;;;8.07;2.55;;;;;;;13.47;100.00;100262.38;5335959;27;20027;-72
2023/11/01 00:46:22;;;;;;;8.43;2.75;;;;;;;13.44;100.00;100265.34;5337704;27;20023;-73
2023/11/01 00:48:54;;;;;;;8.95;2.63;;;;;;;13.44;100.00;100258.25;5334984;27;20027;-73
2023/11/01 00:51:26;;;;;;;9.63;2.95;;;;;;;13.47;100.00;100263.19;5335889;27;20048;-73
2023/11/01 00:53:58;;;;;;;5.63;2.17;;;;;;;13.42;100.00;100262.88;5335427;27;20179;-72
2023/11/01 00:56:29;;;;;;;7.35;2.35;;;;;;;13.44;100.00;100254.81;5334557;27;20374;-73
2023/11/01 00:59:01;;;;;;;5.82;2.47;;;;;;;13.45;100.00;100265.19;5335937;28;20114;-72
2023/11/01 01:01:34;;;;;;;10.50;2.50;;;;;;;13.49;100.00;100252.53;5336271;27;20034;-73
2023/11/01 01:04:06;;;;;;;8.90;2.00;;;;;;;13.47;100.00;100254.50;5337366;27;20280;-72
2023/11/01 01:06:38;;;;;;;8.27;3.13;;;;;;;13.50;100.00;100251.53;5331494;28;20019;-73
2023/11/01 01:09:12;;;;;;;9.90;2.40;;;;;;;13.47;100.00;100246.59;5306426;28;20138;-73
2023/11/01 01:11:43;;;;;;;6.95;2.70;;;;;;;13.44;100.00;100245.09;5330818;28;20031;-73
2023/11/01 01:14:17;;;;;;;9.05;2.83;;;;;;;13.43;100.00;100245.28;5335656;28;20284;-73
2023/11/01 01:16:49;;;;;;;8.27;2.47;;;;;;;13.45;100.00;100244.13;5333921;28;20046;-72
2023/11/01 01:19:24;;;;;;;6.60;2.00;;;;;;;13.49;100.00;100240.19;5336771;28;20392;-73
2023/11/01 01:21:56;;;;;;;8.10;2.45;;;;;;;13.46;100.00;100240.50;5335191;28;20042;-72
2023/11/01 01:24:28;;;;;;;9.27;2.15;;;;;;;13.48;100.00;100224.53;5335183;28;20419;-73
2023/11/01 01:27:00;;;;;;;7.07;2.10;;;;;;;13.46;100.00;100221.28;5338209;28;20023;-72
2023/11/01 01:29:32;;;;;;;6.03;2.08;;;;;;;13.47;100.00;100225.53;5335520;28;20038;-73
2023/11/01 01:32:04;;;;;;;8.35;2.15;;;;;;;13.47;100.00;100213.19;5334652;28;20033;-73
2023/11/01 01:34:36;;;;;;;8.43;2.03;;;;;;;13.48;100.00;100219.28;5332743;28;20042;-73
2023/11/01 01:37:08;;;;;;;6.18;2.15;;;;;;;13.48;100.00;100216.66;5320120;28;20047;-73
2023/11/01 01:39:39;;;;;;;6.28;2.28;;;;;;;13.49;100.00;100213.88;5335105;28;20089;-72
2023/11/01 01:42:13;;;;;;;7.25;2.20;;;;;;;13.50;100.00;100206.81;5314412;28;20040;-72
2023/11/01 01:44:45;;;;;;;6.88;1.98;;;;;;;13.48;100.00;100200.88;5333354;28;20034;-73
2023/11/01 01:47:18;;;;;;;6.22;2.20;;;;;;;13.41;100.00;100187.56;5334314;28;20035;-72
2023/11/01 01:49:52;;;;;;;11.85;2.67;;;;;;;13.35;100.00;100189.03;5332797;28;20031;-72
2023/11/01 01:52:24;;;;;;;7.20;2.40;;;;;;;13.35;100.00;100183.78;5310526;28;20035;-72
2023/11/01 01:54:56;;;;;;;7.43;2.65;;;;;;;13.35;100.00;100183.78;5335593;28;20059;-72
2023/11/01 01:57:28;;;;;;;8.10;2.70;;;;;;;13.36;100.00;100180.16;5335953;28;20031;-72
2023/11/01 02:00:00;;;;;;;15.82;2.65;;;;;;;13.39;100.00;100169.28;5336483;28;20030;-72
2023/11/01 02:02:32;;;;;;;9.60;3.28;;;;;;;13.35;100.00;100167.16;5332773;28;20045;-73
2023/11/01 02:05:06;;;;;;;7.93;2.50;;;;;;;13.32;100.00;100164.84;5331822;27;20020;-71
2023/11/01 02:07:38;;;;;;;6.93;2.35;;;;;;;13.25;100.00;100166.50;5338297;27;20037;-72
2023/11/01 02:10:14;;;;;;;7.38;2.17;;;;;;;13.18;100.00;100144.44;5339390;27;20026;-72
2023/11/01 02:12:46;;;;;;;6.55;2.13;;;;;;;13.19;100.00;100157.44;5338386;27;20038;-72
2023/11/01 02:15:17;;;;;;;7.45;2.10;;;;;;;13.28;100.00;100153.84;5336092;27;20023;-73
2023/11/01 02:17:49;;;;;;;6.40;1.92;;;;;;;13.28;100.00;100147.75;5339011;27;20041;-72
2023/11/01 02:20:21;;;;;;;8.35;2.20;;;;;;;13.27;100.00;100141.69;5337184;27;20023;-72
2023/11/01 02:22:55;;;;;;;6.73;1.90;;;;;;;13.28;100.00;100148.56;5337945;27;20038;-73
2023/11/01 02:25:28;;;;;;;9.73;3.00;;;;;;;13.28;100.00;100138.06;5336683;27;20027;-73
2023/11/01 02:28:00;;;;;;;5.80;2.00;;;;;;;13.23;100.00;100127.22;5336697;27;20035;-73
2023/11/01 02:30:32;;;;;;;6.05;1.77;;;;;;;13.31;100.00;100124.56;5336784;27;20034;-73
2023/11/01 02:33:04;;;;;;;8.93;2.53;;;;;;;13.35;100.00;100125.06;5328027;27;20042;-73
2023/11/01 02:35:36;;;;;;;8.05;2.20;;;;;;;13.39;100.00;100121.94;5335463;27;20027;-73
2023/11/01 02:38:09;;;;;;;4.70;1.75;;;;;;;13.48;100.00;100119.28;5333762;27;20023;-73
2023/11/01 02:40:41;;;;;;;10.00;1.93;;;;;;;13.46;100.00;100111.56;5336584;27;20031;-73
2023/11/01 02:43:15;;;;;;;5.07;1.42;;;;;;;13.42;100.00;100106.81;5336054;27;20273;-73
2023/11/01 02:45:47;;;;;;;6.60;1.52;;;;;;;13.40;100.00;100104.34;5337876;27;20031;-73
2023/11/01 02:48:19;;;;;;;3.85;1.40;;;;;;;13.44;100.00;100099.56;5336961;27;20036;-73
2023/11/01 02:50:51;;;;;;;3.55;1.40;;;;;;;13.44;100.00;100094.31;5334361;27;20027;-73
2023/11/01 02:53:23;;;;;;;3.90;1.45;;;;;;;13.52;100.00;100084.56;5339057;27;20043;-72
2023/11/01 02:55:55;;;;;;;4.88;1.27;;;;;;;13.52;100.00;100083.75;5338052;27;20037;-72
2023/11/01 02:58:28;;;;;;;3.35;1.00;;;;;;;13.52;100.00;100075.84;5333688;27;20035;-72
2023/11/01 03:01:00;;;;;;;5.55;1.35;;;;;;;13.52;100.00;100070.59;5329598;27;20023;-72
2023/11/01 03:03:32;;;;;;;4.00;0.90;;;;;;;13.53;100.00;100067.81;5337500;27;20101;-72
2023/11/01 03:06:04;;;;;;;2.97;0.93;;;;;;;13.53;100.00;100062.56;5336912;27;20038;-72
2023/11/01 03:08:36;;;;;;;3.28;0.90;;;;;;;13.54;100.00;100064.19;5336256;27;20403;-72
2023/11/01 03:11:08;;;;;;;2.95;1.10;;;;;;;13.40;100.00;100051.72;5339578;27;20031;-72
2023/11/01 03:13:40;;;;;;;2.85;1.10;;;;;;;13.53;100.00;100053.84;5336416;27;20027;-73
2023/11/01 03:16:12;;;;;;;4.10;1.08;;;;;;;13.57;100.00;100053.34;5336749;27;20023;-72
2023/11/01 03:18:45;;;;;;;2.28;1.00;;;;;;;13.58;100.00;100051.50;5338074;27;20399;-73
2023/11/01 03:21:17;;;;;;;;;;;;;;;14.35;100.00;100057.75;5336547;27;20495;-72
2023/11/01 03:23:49;;;;;;;3.33;1.10;;;;;;;13.65;100.00;100051.66;5337174;27;19915;-72
2023/11/01 03:26:21;;;;;;;3.00;1.17;;;;;;;13.66;100.00;100055.94;5335295;27;20027;-73
2023/11/01 03:28:53;;;;;;;2.05;0.77;;;;;;;13.66;100.00;100056.75;5329504;27;20046;-72
2023/11/01 03:31:25;;;;;;;2.60;0.75;;;;;;;13.67;100.00;100044.41;5336429;27;20078;-73
2023/11/01 03:33:57;;;;;;;4.00;1.00;;;;;;;13.74;100.00;100053.28;5337419;27;20408;-73
2023/11/01 03:36:29;;;;;;;3.15;1.10;;;;;;;13.75;100.00;100039.97;5338543;27;20289;-73
2023/11/01 03:39:01;;;;;;;3.13;1.00;;;;;;;13.74;100.00;100048.81;5336255;27;20023;-72
2023/11/01 03:41:35;;;;;;;3.05;1.15;;;;;;;13.73;100.00;100047.19;5337633;27;20027;-73
2023/11/01 03:44:07;;;;;;;2.83;1.10;;;;;;;13.76;100.00;100033.69;5337826;27;20031;-72
2023/11/01 03:46:39;;;;;;;4.17;1.20;;;;;;;13.81;100.00;100041.88;5335920;27;20034;-73
2023/11/01 03:49:11;;;;;;;2.70;1.20;;;;;;;13.80;100.00;100037.63;5336921;27;20397;-72
2023/11/01 03:51:43;;;;;;;3.55;1.58;;;;;;;13.81;100.00;100031.34;5336757;27;20070;-72
2023/11/01 03:54:15;;;;;;;3.10;1.40;;;;;;;13.69;100.00;100032.72;5337570;27;20037;-72
2023/11/01 03:56:46;;;;;;;4.00;1.25;;;;;;;13.67;100.00;100036.50;5334226;27;20081;-72
2023/11/01 03:59:18;;;;;;;2.78;1.40;;;;;;;13.70;100.00;100044.88;5336394;27;20519;-71
2023/11/01 04:01:50;;;;;;;2.90;1.10;;;;;;;13.73;100.00;100034.03;5336630;27;20470;-72
2023/11/01 04:04:22;;;;;;;4.07;1.20;;;;;;;13.75;100.00;100037.31;5336262;27;20053;-72
2023/11/01 04:06:54;;;;;;;3.40;1.40;;;;;;;13.80;100.00;100034.19;5338113;27;20054;-72
2023/11/01 04:09:26;;;;;;;4.25;1.83;;;;;;;13.82;100.00;100045.34;5335506;27;20097;-72
2023/11/01 04:11:58;;;;;;;4.13;1.40;;;;;;;13.84;100.00;100038.09;5334967;27;20042;-73
2023/11/01 04:14:31;;;;;;;4.60;1.92;;;;;;;13.80;100.00;100026.28;5333159;27;20093;-72
2023/11/01 04:17:04;;;;;;;4.63;1.75;;;;;;;13.91;100.00;100030.34;5336307;27;20031;-72
2023/11/01 04:19:36;;;;;;;3.60;2.03;;;;;;;13.94;100.00;100032.63;5336081;27;20031;-72
2023/11/01 04:22:08;;;;;;;6.20;1.70;;;;;;;13.92;100.00;100035.44;5321430;27;21731;-72
2023/11/01 04:24:40;;;;;;;4.90;2.08;;;;;;;13.93;100.00;100038.88;5334578;27;20495;-72
2023/11/01 04:27:12;;;;;;;6.53;1.90;;;;;;;13.88;100.00;100036.75;5335840;27;20011;-72
2023/11/01 04:29:44;;;;;;;6.25;1.80;;;;;;;13.93;100.00;100039.69;5335267;27;20102;-72
2023/11/01 04:32:15;;;;;;;5.45;1.70;;;;;;;13.94;100.00;100030.81;5335881;27;20023;-72
2023/11/01 04:34:49;;;;;;;9.25;2.60;;;;;;;13.96;100.00;100039.34;5337804;27;20113;-72
2023/11/01 04:37:24;;;;;;;5.38;1.83;;;;;;;13.99;100.00;100033.75;5333626;27;20038;-72
2023/11/01 04:39:56;;;;;;;8.27;2.10;;;;;;;13.90;100.00;100039.22;5337511;27;20038;-72
2023/11/01 04:42:28;;;;;;;6.95;2.13;;;;;;;13.99;100.00;100035.56;5334106;27;20496;-73
2023/11/01 04:45:00;;;;;;;6.07;2.45;;;;;;;13.95;100.00;100039.53;5335547;27;20072;-72
2023/11/01 04:47:34;;;;;;;6.68;2.30;;;;;;;13.95;100.00;100032.47;5335254;27;20463;-74
2023/11/01 04:50:09;;;;;;;13.52;2.60;;;;;;;13.94;100.00;100030.81;5313832;27;20051;-72
2023/11/01 04:52:42;;;;;;;9.10;3.17;;;;;;;13.96;100.00;100028.00;5335464;27;20047;-72
2023/11/01 04:55:14;;;;;;;8.82;2.42;;;;;;;14.00;100.00;100024.84;5336069;27;20400;-72
2023/11/01 04:57:46;;;;;;;11.13;2.60;;;;;;;13.98;100.00;100031.28;5334997;27;20035;-73
2023/11/01 05:00:18;;;;;;;9.55;2.55;;;;;;;14.01;100.00;100029.13;5333240;27;20035;-72
2023/11/01 05:02:51;;;;;;;12.20;2.63;;;;;;;14.05;100.00;100037.50;5334770;27;20106;-72
2023/11/01 05:05:23;;;;;;;9.38;2.97;;;;;;;14.02;100.00;100029.97;5334345;27;20503;-72
2023/11/01 05:07:55;;;;;;;7.32;2.38;;;;;;;14.03;100.00;100027.16;5335873;28;20035;-72
2023/11/01 05:10:27;;;;;;;7.72;2.47;;;;;;;13.94;100.00;100025.56;5335024;27;20030;-72
2023/11/01 05:12:59;;;;;;;9.35;2.75;;;;;;;13.99;100.00;100028.50;5334524;28;20422;-72
2023/11/01 05:15:33;;;;;;;12.68;3.20;;;;;;;14.01;100.00;100025.66;5327012;28;20084;-73
2023/11/01 05:18:05;;;;;;;9.18;2.47;;;;;;;14.03;100.00;100023.69;5332188;28;20381;-72
2023/11/01 05:20:39;;;;;;;8.80;2.60;;;;;;;13.98;100.00;100010.22;5335570;28;20067;-72
2023/11/01 05:23:10;;;;;;;9.98;2.85;;;;;;;14.00;100.00;100011.69;5334651;28;20027;-73
2023/11/01 05:25:44;;;;;;;13.68;2.63;;;;;;;14.00;100.00;100013.50;5336465;28;20031;-72
2023/11/01 05:28:15;;;;;;;;;;;;;;;14.66;100.00;100006.00;5335341;28;20028;-73
2023/11/01 05:30:47;;;;;;;13.20;3.60;;;;;;;14.05;100.00;100005.91;5334221;28;19916;-72
2023/11/01 05:33:19;;;;;;;11.40;2.83;;;;;;;13.99;100.00;100003.97;5333353;28;20057;-73
2023/11/01 05:35:51;;;;;;;8.93;2.97;;;;;;;14.01;100.00;99984.34;5334825;28;20048;-73
2023/11/01 05:38:27;;;;;;;10.88;2.58;;;;;;;14.00;100.00;99995.88;5337912;27;20118;-73
2023/11/01 05:40:58;;;;;;;11.30;3.35;;;;;;;13.97;100.00;99995.41;5334598;27;20031;-73
2023/11/01 05:43:30;;;;;;;10.60;2.58;;;;;;;13.95;100.00;99994.78;5333133;27;20108;-73
2023/11/01 05:46:03;;;;;;;11.38;2.67;;;;;;;13.92;100.00;100001.19;5338696;27;20027;-73
2023/11/01 05:48:34;;;;;;;14.80;3.10;;;;;;;13.95;100.00;99992.97;5339726;27;20468;-73
2023/11/01 05:51:06;;;;;;;10.45;2.60;;;;;;;13.94;100.00;99999.22;5341107;27;20038;-73
2023/11/01 05:53:38;;;;;;;9.43;2.50;;;;;;;13.93;100.00;99994.13;5338380;27;20038;-73
2023/11/01 05:56:10;;;;;;;10.55;2.50;;;;;;;13.87;100.00;99996.47;5338119;27;20126;-73
2023/11/01 05:58:42;;;;;;;11.60;3.00;;;;;;;13.85;100.00;99990.53;5338720;27;20027;-73
2023/11/01 06:01:14;;;;;;;9.50;2.70;;;;;;;13.88;100.00;99995.47;5336062;27;20035;-74
2023/11/01 06:03:50;;;;;;;10.45;2.70;;;;;;;13.84;100.00;99994.16;5335080;27;20288;-73
2023/11/01 06:06:25;;;;;;;11.18;2.83;;;;;;;13.89;100.00;99996.28;5335366;27;20031;-73
2023/11/01 06:08:57;;;;;;;15.60;3.17;;;;;;;13.85;100.00;99997.59;5333917;27;20458;-73
2023/11/01 06:11:28;;;;;;;11.10;3.17;;;;;;;13.83;100.00;99991.72;5332783;27;20023;-73
2023/11/01 06:14:00;;;;;;;10.48;3.33;;;;;;;13.85;100.00;100000.25;5338406;27;20037;-73
2023/11/01 06:16:33;;;;;;;12.60;3.13;;;;;;;13.88;100.00;99992.00;5339241;27;20376;-73
2023/11/01 06:19:04;;;;;;;10.23;2.53;;;;;;;13.85;100.00;99994.97;5336326;27;20058;-73
2023/11/01 06:21:36;;;;;;;12.82;3.17;;;;;;;13.83;100.00;99994.34;5339574;27;20035;-73
2023/11/01 06:24:08;;;;;;;13.52;3.10;;;;;;;13.79;100.00;99993.06;5338035;27;20035;-72
2023/11/01 06:26:40;;;;;;;10.60;2.75;;;;;;;13.77;100.00;99995.84;5339683;27;20061;-73
2023/11/01 06:29:12;;;;;;;8.15;2.15;;;;;;;13.71;100.00;99993.88;5335522;27;20033;-72
2023/11/01 06:31:44;;;;;;;9.03;2.73;;;;;;;13.73;100.00;99996.34;5338587;27;20031;-73
2023/11/01 06:34:16;;;;;;;8.63;2.65;;;;;;;13.77;100.00;99989.75;5334341;27;20049;-73
2023/11/01 06:36:48;;;;;;;8.73;2.50;;;;;;;13.78;100.00;99994.84;5333089;27;20044;-73
2023/11/01 06:39:20;;;;;;;10.10;1.90;;;;;;;13.80;100.00;99992.88;5329243;27;20036;-73
2023/11/01 06:41:52;;;;;;;12.05;3.22;;;;;;;13.76;100.00;99998.66;5337368;27;20039;-73
2023/11/01 06:44:25;;;;;;;9.90;2.13;;;;;;;13.79;100.00;100000.94;5336501;27;20106;-73
2023/11/01 06:46:56;;;;;;;7.95;2.53;;;;;;;13.84;100.00;99998.63;5336252;27;20015;-73
2023/11/01 06:49:28;;;;;;;12.55;2.90;;;;;;;13.83;100.00;100002.25;5337070;27;20050;-73
2023/11/01 06:52:00;;;;;;;8.70;2.10;;;;;;;13.79;100.00;99996.50;5335867;27;20399;-73
2023/11/01 06:54:33;;;;;;;13.60;2.13;;;;;;;13.80;100.00;100005.22;5336779;27;20039;-73
2023/11/01 06:57:05;;;;;;;12.00;2.67;;;;;;;13.80;100.00;99999.94;5336840;27;20389;-73
2023/11/01 06:59:40;;;;;;;12.77;2.83;;;;;;;13.82;100.00;99995.31;5335139;27;20028;-74
2023/11/01 07:02:12;;;;;;;11.05;2.25;;;;;;;13.78;100.00;100002.72;5335398;27;20038;-73
2023/11/01 07:04:44;;;;;;;11.52;2.10;;;;;;;13.79;100.00;100004.41;5333527;27;20034;-73
2023/11/01 07:07:16;;;;;;;10.85;2.38;;;;;;;13.78;100.00;99994.84;5326011;27;20030;-73
2023/11/01 07:09:47;;;;;;;14.18;2.33;;;;;;;13.78;100.00;100000.09;5334781;27;20037;-73
2023/11/01 07:12:21;;;;;;;13.20;2.70;;;;;;;13.78;100.00;100007.19;5334885;27;20041;-73
2023/11/01 07:14:53;;;;;;;12.75;2.95;;;;;;;13.84;100.00;100006.50;5335469;27;20046;-73
2023/11/01 07:17:27;;;;;;;12.63;2.15;;;;;;;13.85;100.00;100006.31;5337810;27;20023;-74
2023/11/01 07:19:59;;;;;;;10.05;2.50;;;;;;;13.77;100.00;100002.91;5336587;27;20042;-74
2023/11/01 07:22:31;;;;;;;10.45;3.28;;;;;;;13.84;100.00;100004.69;5335643;27;20035;-74
2023/11/01 07:25:04;;;;;;;12.73;2.78;;;;;;;13.83;100.00;100000.44;5336895;27;20027;-74
2023/11/01 07:27:36;;;;;;;10.88;2.10;;;;;;;13.90;100.00;100011.06;5337348;27;20026;-74
2023/11/01 07:30:08;;;;;;;6.50;2.22;;;;;;;13.94;100.00;100009.75;5338625;27;20035;-73
2023/11/01 07:32:40;;;;;;;5.75;1.83;;;;;;;14.02;100.00;100011.53;5336346;27;20071;-74
2023/11/01 07:35:12;;;;;;;15.82;3.03;;;;;;;14.00;100.00;100013.50;5328397;27;20035;-74
2023/11/01 07:37:44;;;;;;;8.68;2.80;;;;;;;13.96;100.00;100009.56;5334020;27;20041;-73
2023/11/01 07:40:16;;;;;;;13.63;2.80;;;;;;;14.06;100.00;100005.75;5335016;27;20038;-73
2023/11/01 07:42:48;;;;;;;9.77;2.17;;;;;;;14.01;100.00;100002.78;5334802;27;20027;-73
2023/11/01 07:45:19;;;;;;;12.57;3.03;;;;;;;14.09;100.00;99996.66;5333282;27;20035;-73
2023/11/01 07:47:51;;;;;;;8.80;2.50;;;;;;;14.12;100.00;99993.69;5329878;27;20031;-74
2023/11/01 07:50:26;;;;;;;10.57;2.28;;;;;;;14.20;100.00;99995.44;5336007;27;20472;-74
2023/11/01 07:52:58;;;;;;;5.55;2.13;;;;;;;14.17;100.00;99987.88;5335263;27;20058;-73
2023/11/01 07:55:30;;;;;;;11.93;2.45;;;;;;;14.15;100.00;99990.69;5336622;27;20035;-74
2023/11/01 07:58:02;;;;;;;9.65;2.50;;;;;;;14.14;100.00;99988.25;5334260;27;20034;-74
2023/11/01 08:00:34;;;;;;;11.95;2.28;;;;;;;14.15;100.00;99989.88;5335253;27;20028;-75
2023/11/01 08:03:06;;;;;;;11.23;2.20;;;;;;;14.08;100.00;99995.84;5320838;27;20027;-74
2023/11/01 08:05:38;;;;;;;7.07;2.00;;;;;;;14.16;100.00;99986.25;5334872;27;20037;-74
2023/11/01 08:08:10;;;;;;;11.10;2.63;;;;;;;14.20;100.00;99983.09;5334323;27;20483;-74
2023/11/01 08:10:42;;;;;;;10.82;2.20;;;;;;;14.19;100.00;99978.81;5334727;27;20035;-74
2023/11/01 08:13:15;;;;;;;10.07;2.67;;;;;;;14.22;100.00;99980.28;5336733;27;20039;-74
2023/11/01 08:15:46;;;;;;;;;;;;;;;14.91;100.00;99975.00;5335034;27;20034;-74
2023/11/01 08:18:18;;;;;;;9.60;2.70;;;;;;;14.31;100.00;99977.41;5333698;27;19923;-75
2023/11/01 08:20:53;;;;;;;12.18;2.88;;;;;;;14.27;100.00;99975.31;5332705;27;20044;-75
2023/11/01 08:23:26;;;;;;;8.32;2.05;;;;;;;14.28;100.00;99984.84;5333048;27;20023;-74
2023/11/01 08:25:59;;;;;;;10.68;2.05;;;;;;;14.34;100.00;99978.88;5335988;27;20030;-74
2023/11/01 08:28:31;;;;;;;10.23;2.58;;;;;;;14.33;100.00;99980.69;5326698;27;20031;-74
2023/11/01 08:31:03;;;;;;;7.65;2.40;;;;;;;14.33;100.00;99980.69;5333731;27;20103;-75
2023/11/01 08:33:34;;;;;;;9.02;2.88;;;;;;;14.36;100.00;99979.53;5337845;27;20034;-74
2023/11/01 08:36:07;;;;;;;7.97;1.92;;;;;;;14.36;100.00;99972.44;5335020;27;20616;-75
2023/11/01 08:38:39;;;;;;;12.30;1.95;;;;;;;14.39;100.00;99968.63;5334701;27;20033;-75
2023/11/01 08:41:13;;;;;;;10.23;2.35;;;;;;;14.40;100.00;99969.47;5334703;27;20035;-74
2023/11/01 08:43:44;;;;;;;11.18;2.40;;;;;;;14.42;100.00;99970.09;5333900;27;20035;-75
2023/11/01 08:46:16;;;;;;;9.93;2.40;;;;;;;14.42;100.00;99970.91;5332027;27;20027;-74
2023/11/01 08:48:49;;;;;;;10.95;2.00;;;;;;;14.46;100.00;99979.28;5334896;27;20506;-74
2023/11/01 08:51:21;;;;;;;7.93;2.22;;;;;;;14.47;100.00;99975.66;5333034;27;20027;-75
2023/11/01 08:53:52;;;;;;;9.55;2.63;;;;;;;14.48;100.00;99978.13;5334542;27;20032;-75
2023/11/01 08:56:24;;;;;;;7.90;1.80;;;;;;;14.53;100.00;99970.53;5334936;27;20045;-74
2023/11/01 08:58:56;;;;;;;7.90;1.90;;;;;;;14.59;100.00;99961.09;5336047;27;20526;-74
2023/11/01 09:01:28;;;;;;;12.55;2.03;;;;;;;14.64;100.00;99961.38;5335072;27;20477;-75
2023/11/01 09:04:00;;;;;;;11.77;2.08;;;;;;;14.68;100.00;99953.94;5331486;27;20027;-75
2023/11/01 09:06:34;;;;;;;9.82;2.10;;;;;;;14.78;100.00;99960.59;5333095;27;20027;-74
2023/11/01 09:09:06;;;;;;;7.97;2.08;;;;;;;14.83;100.00;99946.88;5330788;28;20023;-74
2023/11/01 09:11:38;;;;;;;10.00;2.05;;;;;;;14.90;100.00;99941.72;5333599;28;20396;-74
2023/11/01 09:14:10;;;;;;;8.15;1.90;;;;;;;14.94;100.00;99942.97;5334289;28;20034;-74
2023/11/01 09:16:42;;;;;;;9.45;2.42;;;;;;;14.94;100.00;99942.97;5330131;28;20387;-74
2023/11/01 09:19:15;;;;;;;10.50;2.20;;;;;;;14.95;100.00;99940.16;5324970;28;20035;-74
2023/11/01 09:21:47;;;;;;;7.25;1.88;;;;;;;14.96;100.00;99922.50;5301639;28;20304;-74
2023/11/01 09:24:18;;;;;;;7.00;1.65;;;;;;;15.01;100.00;99930.72;5333539;28;20504;-75
2023/11/01 09:26:50;;;;;;;11.23;2.10;;;;;;;14.95;100.00;99926.97;5333661;28;20031;-74
2023/11/01 09:29:22;;;;;;;9.52;2.33;;;;;;;14.92;100.00;99923.88;5331922;28;20034;-75
2023/11/01 09:31:54;;;;;;;5.95;1.88;;;;;;;14.91;100.00;99920.41;5334747;28;20118;-74
2023/11/01 09:34:26;;;;;;;8.50;1.63;;;;;;;14.97;100.00;99926.81;5334582;28;20598;-74
2023/11/01 09:36:58;;;;;;;9.60;2.40;;;;;;;14.99;100.00;99930.06;5335735;28;20033;-74
2023/11/01 09:39:30;;;;;;;7.63;1.77;;;;;;;14.95;100.00;99921.69;5332783;28;20034;-74
2023/11/01 09:42:20;;;;;;;8.73;1.70;;;;;;;15.22;100.00;99925.50;5335266;28;20034;-74
2023/11/01 09:44:56;;;;;;;9.75;2.83;;;;;;;15.06;100.00;99923.88;5333871;28;20035;-74
2023/11/01 09:47:29;;;;;;;9.13;1.60;;;;;;;14.98;100.00;99920.53;5325596;28;20038;-75
2023/11/01 09:50:01;;;;;;;7.80;1.83;;;;;;;15.03;100.00;99921.59;5335483;28;20035;-74
2023/11/01 09:52:33;;;;;;;8.45;1.80;;;;;;;14.97;100.00;99911.78;5333044;28;20046;-75
2023/11/01 09:55:06;;;;;;;6.65;2.15;;;;;;;15.01;100.00;99917.53;5332820;28;20031;-75
2023/11/01 09:57:41;;;;;;;;;;;;;;;15.77;100.00;99913.63;5333391;28;20039;-75
2023/11/01 10:00:15;;;;;;;4.78;1.50;;;;;;;15.19;100.00;99912.72;5331953;27;19918;-74
2023/11/01 10:02:47;;;;;;;7.88;2.13;;;;;;;15.19;100.00;99917.16;5330686;28;20023;-75
2023/11/01 10:05:19;;;;;;;8.25;2.03;;;;;;;15.23;100.00;99910.53;5330706;28;20062;-75
2023/11/01 10:07:51;;;;;;;5.70;1.90;;;;;;;15.28;100.00;99905.50;5332373;28;20032;-75
2023/11/01 10:10:23;;;;;;;7.40;2.13;;;;;;;15.28;100.00;99898.41;5329539;28;20035;-75
2023/11/01 10:12:55;;;;;;;12.77;1.90;;;;;;;15.34;100.00;99894.19;5329515;28;20110;-74
2023/11/01 10:15:26;;;;;;;6.28;1.88;;;;;;;15.38;100.00;99897.28;5324114;28;20039;-74
2023/11/01 10:17:58;;;;;;;7.95;2.35;;;;;;;15.43;100.00;99885.19;5332638;28;20046;-74
2023/11/01 10:20:31;;;;;;;8.25;1.98;;;;;;;15.47;100.00;99888.28;5331040;27;20034;-75
2023/11/01 10:23:03;;;;;;;6.90;1.77;;;;;;;15.46;100.00;99886.66;5332803;27;20031;-74
2023/11/01 10:25:35;;;;;;;5.10;1.42;;;;;;;15.49;100.00;99873.91;5337015;27;20035;-74
2023/11/01 10:28:14;;;;;;;8.23;2.00;;;;;;;15.56;100.00;99873.94;5336551;27;20027;-75
2023/11/01 10:30:47;;;;;;;7.22;1.98;;;;;;;15.51;100.00;99868.44;5335528;27;20050;-76
2023/11/01 10:33:21;;;;;;;6.70;1.80;;;;;;;15.57;100.00;99870.34;5334637;27;20487;-74
2023/11/01 10:36:00;;;;;;;7.03;1.80;;;;;;;15.57;100.00;99863.22;5335706;27;20035;-74
2023/11/01 10:38:32;;;;;;;8.02;2.03;;;;;;;15.61;100.00;99860.19;5336109;27;20400;-75
2023/11/01 10:41:04;;;;;;;7.30;1.85;;;;;;;15.69;100.00;99863.59;5331132;27;20376;-74
2023/11/01 10:43:36;;;;;;;6.82;1.90;;;;;;;15.61;100.00;99861.03;5332978;27;20023;-74
2023/11/01 10:46:09;;;;;;;7.35;1.70;;;;;;;15.76;100.00;99861.81;5333947;27;20035;-75
2023/11/01 10:48:42;;;;;;;8.05;1.98;;;;;;;15.84;100.00;99852.97;5335298;27;20019;-74
2023/11/01 10:51:15;;;;;;;8.05;1.90;;;;;;;16.01;100.00;99848.22;5334462;27;20028;-74
2023/11/01 10:53:47;;;;;;;5.18;1.80;;;;;;;16.02;100.00;99847.22;5338488;27;20057;-75
2023/11/01 10:56:19;;;;;;;5.65;1.33;;;;;;;16.02;100.00;99837.50;5333156;27;20042;-75
2023/11/01 10:58:56;;;;;;;6.55;1.88;;;;;;;16.18;100.00;99833.75;5333685;27;20078;-74
2023/11/01 11:01:34;;;;;;;4.90;1.52;;;;;;;16.20;100.00;99825.63;5335660;27;20039;-75
2023/11/01 11:04:21;;;;;;;6.65;2.10;;;;;;;16.20;100.00;99823.78;5336615;27;20385;-75
2023/11/01 11:07:05;;;;;;;7.22;1.77;;;;;;;16.21;100.00;99824.59;5333902;27;20046;-74
2023/11/01 11:09:37;;;;;;;5.53;1.77;;;;;;;16.16;100.00;99813.81;5328780;27;20030;-75
2023/11/01 11:12:21;;;;;;;6.03;1.77;;;;;;;16.36;100.00;99800.72;5337263;27;20035;-74
2023/11/01 11:14:53;;;;;;;5.03;1.35;;;;;;;16.15;100.00;99802.44;5337012;27;20301;-74
2023/11/01 11:17:25;;;;;;;4.73;1.30;;;;;;;16.32;100.00;99805.59;5337110;27;20023;-74
2023/11/01 11:20:14;;;;;;;5.38;1.75;;;;;;;16.45;100.00;99794.31;5335021;27;20637;-75
2023/11/01 11:23:01;;;;;;;8.40;2.08;;;;;;;16.41;100.00;99788.59;5335422;27;20027;-74
2023/11/01 11:25:45;;;;;;;6.65;2.15;;;;;;;16.38;100.00;99783.69;5336368;27;20043;-74
2023/11/01 11:28:17;;;;;;;6.75;1.75;;;;;;;16.40;100.00;99779.03;5336308;27;20019;-75
2023/11/01 11:31:11;;;;;;;6.07;1.70;;;;;;;16.66;100.00;99770.41;5334853;27;20034;-75
2023/11/01 11:33:49;;;;;;;6.07;1.60;;;;;;;16.45;100.00;99773.16;5338102;27;20108;-75
2023/11/01 11:36:25;;;;;;;3.95;1.20;;;;;;;16.39;100.00;99758.88;5328806;27;20032;-74
2023/11/01 11:38:57;;;;;;;3.95;1.58;;;;;;;16.38;100.00;99761.72;5331742;27;20473;-75
2023/11/01 11:41:38;;;;;;;6.05;1.42;;;;;;;16.56;100.00;99754.09;5333040;27;20043;-75
2023/11/01 11:44:14;;;;;;;6.40;1.50;;;;;;;16.47;100.00;99753.41;5334343;27;20038;-74